createdAt,value
2023-04-28T00:00:07.839Z,5.15
2023-04-28T00:02:56.276Z,5.19
2023-04-28T00:05:25.419Z,5.11
2023-04-28T00:07:54.028Z,5.19
2023-04-28T00:10:22.665Z,5.12
2023-04-28T00:12:51.120Z,5.09
2023-04-28T00:15:19.453Z,5.15
2023-04-28T00:17:47.873Z,5.07
2023-04-28T00:20:16.372Z,5.17
2023-04-28T00:22:44.666Z,5.12
2023-04-28T00:25:13.095Z,5.10
2023-04-28T00:27:41.635Z,5.01
2023-04-28T00:30:10.724Z,5.07
2023-04-28T00:32:39.086Z,5.11
2023-04-28T00:35:07.948Z,5.11
2023-04-28T00:37:37.815Z,5.09
2023-04-28T00:40:07.062Z,5.10
2023-04-28T00:42:35.475Z,5.06
2023-04-28T00:45:06.817Z,5.01
2023-04-28T00:47:35.550Z,4.90
2023-04-28T00:50:08.455Z,4.92
2023-04-28T00:52:37.354Z,4.84
2023-04-28T00:55:06.259Z,4.77
2023-04-28T00:57:34.634Z,4.69
2023-04-28T01:00:04.466Z,4.76
2023-04-28T01:02:33.127Z,4.76
2023-04-28T01:05:02.590Z,4.76
2023-04-28T01:07:31.058Z,4.66
2023-04-28T01:09:59.364Z,4.75
2023-04-28T01:12:31.569Z,4.74
2023-04-28T01:15:00.249Z,4.71
2023-04-28T01:17:29.264Z,4.73
2023-04-28T01:19:57.742Z,4.81
2023-04-28T01:22:26.126Z,4.87
2023-04-28T01:24:54.449Z,4.74
2023-04-28T01:27:23.875Z,4.82
2023-04-28T01:29:52.419Z,4.84
2023-04-28T01:32:21.145Z,4.78
2023-04-28T01:34:49.503Z,4.81
2023-04-28T01:37:17.931Z,4.78
2023-04-28T01:39:46.350Z,4.79
2023-04-28T01:42:14.728Z,4.77
2023-04-28T01:44:43.268Z,4.78
2023-04-28T01:47:12.521Z,4.78
2023-04-28T01:49:41.018Z,4.61
2023-04-28T01:52:09.526Z,4.64
2023-04-28T01:54:38.203Z,4.54
2023-04-28T01:57:06.767Z,4.61
2023-04-28T01:59:35.297Z,4.61
2023-04-28T02:02:03.791Z,4.58
2023-04-28T02:04:32.662Z,4.57
2023-04-28T02:07:01.214Z,4.58
2023-04-28T02:09:29.505Z,4.47
2023-04-28T02:12:02.807Z,4.48
2023-04-28T02:14:33.875Z,4.52
2023-04-28T02:17:03.579Z,4.46
2023-04-28T02:19:32.186Z,4.46
2023-04-28T02:22:00.620Z,4.48
2023-04-28T02:24:29.010Z,4.54
2023-04-28T02:26:59.191Z,4.57
2023-04-28T02:29:30.399Z,4.55
2023-04-28T02:32:00.425Z,4.54
2023-04-28T02:34:28.863Z,4.58
2023-04-28T02:36:57.376Z,4.53
2023-04-28T02:39:27.314Z,4.43
2023-04-28T02:41:58.100Z,4.35
2023-04-28T02:44:27.149Z,4.25
2023-04-28T02:46:55.701Z,4.24
2023-04-28T02:49:26.873Z,4.10
2023-04-28T02:51:55.195Z,4.13
2023-04-28T02:54:29.396Z,4.12
2023-04-28T02:56:58.785Z,4.14
2023-04-28T02:59:27.508Z,4.11
2023-04-28T03:01:56.081Z,4.13
2023-04-28T03:04:24.515Z,4.17
2023-04-28T03:06:53.482Z,4.21
2023-04-28T03:09:22.301Z,4.18
2023-04-28T03:11:50.634Z,4.16
2023-04-28T03:14:19.022Z,4.13
2023-04-28T03:16:47.510Z,4.17
2023-04-28T03:19:16.156Z,4.21
2023-04-28T03:21:44.535Z,4.24
2023-04-28T03:24:14.828Z,4.29
2023-04-28T03:26:43.597Z,4.29
2023-04-28T03:29:12.004Z,4.33
2023-04-28T03:31:40.468Z,4.36
2023-04-28T03:34:09.222Z,4.34
2023-04-28T03:36:37.828Z,4.35
2023-04-28T03:39:11.465Z,4.34
2023-04-28T03:41:40.171Z,4.39
2023-04-28T03:44:31.659Z,4.35
2023-04-28T03:47:01.680Z,4.30
2023-04-28T03:49:30.400Z,4.32
2023-04-28T03:51:58.887Z,4.29
2023-04-28T03:54:27.435Z,4.35
2023-04-28T03:56:55.746Z,4.48
2023-04-28T03:59:24.755Z,4.50
2023-04-28T04:01:53.161Z,4.41
2023-04-28T04:04:21.986Z,4.52
2023-04-28T04:06:51.019Z,4.52
2023-04-28T04:09:19.391Z,4.65
2023-04-28T04:11:47.870Z,4.63
2023-04-28T04:14:17.084Z,4.71
2023-04-28T04:16:50.651Z,4.72
2023-04-28T04:19:19.011Z,4.84
2023-04-28T04:21:51.629Z,4.83
2023-04-28T04:24:56.737Z,4.93
2023-04-28T04:27:25.264Z,5.06
2023-04-28T04:29:53.615Z,5.08
2023-04-28T04:32:22.515Z,5.14
2023-04-28T04:34:51.616Z,5.16
2023-04-28T04:37:20.023Z,5.20
2023-04-28T04:39:53.864Z,5.26
2023-04-28T04:42:24.884Z,5.23
2023-04-28T04:45:05.705Z,5.36
2023-04-28T04:47:34.559Z,5.40
2023-04-28T04:50:03.229Z,5.42
2023-04-28T04:52:31.764Z,5.55
2023-04-28T04:55:00.370Z,5.56
2023-04-28T04:57:32.665Z,5.54
2023-04-28T05:00:09.905Z,5.64
2023-04-28T05:02:38.924Z,5.66
2023-04-28T05:05:19.563Z,5.80
2023-04-28T05:07:52.215Z,5.94
2023-04-28T05:10:22.286Z,6.02
2023-04-28T05:12:50.846Z,6.10
2023-04-28T05:15:19.498Z,6.17
2023-04-28T05:18:10.087Z,6.22
2023-04-28T05:20:39.411Z,6.29
2023-04-28T05:23:08.406Z,6.26
2023-04-28T05:25:41.514Z,6.28
2023-04-28T05:28:11.412Z,6.47
2023-04-28T05:30:39.826Z,6.45
2023-04-28T05:33:08.390Z,6.54
2023-04-28T05:35:37.094Z,6.66
2023-04-28T05:38:07.154Z,6.67
2023-04-28T05:40:36.075Z,6.66
2023-04-28T05:43:04.723Z,6.69
2023-04-28T05:45:33.427Z,6.76
2023-04-28T05:48:02.210Z,6.73
2023-04-28T05:50:31.005Z,6.70
2023-04-28T05:52:59.564Z,6.83
2023-04-28T05:55:28.519Z,6.90
2023-04-28T05:57:57.077Z,6.94
2023-04-28T06:00:25.785Z,6.88
2023-04-28T06:02:54.847Z,7.05
2023-04-28T06:05:24.935Z,7.15
2023-04-28T06:07:56.311Z,7.16
2023-04-28T06:10:26.837Z,7.28
2023-04-28T06:12:55.191Z,7.37
2023-04-28T06:15:23.620Z,7.42
2023-04-28T06:17:54.115Z,7.43
2023-04-28T06:20:22.804Z,7.48
2023-04-28T06:22:51.916Z,7.61
2023-04-28T06:25:20.379Z,7.67
2023-04-28T06:27:48.908Z,7.75
2023-04-28T06:30:23.648Z,7.82
2023-04-28T06:32:52.493Z,7.89
2023-04-28T06:35:21.136Z,7.94
2023-04-28T06:37:49.744Z,8.09
2023-04-28T06:40:18.262Z,8.10
2023-04-28T06:42:53.054Z,8.22
2023-04-28T06:45:39.327Z,8.31
2023-04-28T06:48:10.801Z,8.29
2023-04-28T06:50:41.808Z,8.40
2023-04-28T06:53:16.285Z,8.38
2023-04-28T06:55:44.719Z,8.38
2023-04-28T06:58:13.245Z,8.46
2023-04-28T07:00:43.180Z,8.60
2023-04-28T07:03:11.937Z,8.67
2023-04-28T07:05:40.644Z,8.73
2023-04-28T07:08:08.973Z,8.82
2023-04-28T07:10:54.353Z,8.86
2023-04-28T07:13:23.209Z,8.88
2023-04-28T07:15:51.640Z,8.88
2023-04-28T07:18:20.110Z,8.88
2023-04-28T07:20:48.624Z,8.94
2023-04-28T07:23:17.264Z,8.92
2023-04-28T07:25:46.276Z,8.97
2023-04-28T07:28:15.087Z,8.93
2023-04-28T07:30:44.168Z,9.02
2023-04-28T07:33:12.719Z,8.92
2023-04-28T07:35:41.604Z,9.12
2023-04-28T07:38:11.142Z,9.21
2023-04-28T07:40:39.549Z,9.32
2023-04-28T07:43:08.146Z,9.42
2023-04-28T07:45:40.363Z,9.50
2023-04-28T07:48:09.015Z,9.60
2023-04-28T07:50:45.128Z,9.60
2023-04-28T07:53:18.406Z,9.66
2023-04-28T07:55:47.258Z,9.78
2023-04-28T07:58:15.787Z,9.99
2023-04-28T08:00:44.143Z,10.06
2023-04-28T08:03:13.041Z,10.12
2023-04-28T08:05:41.949Z,10.13
2023-04-28T08:08:11.039Z,10.10
2023-04-28T08:10:57.541Z,10.16
2023-04-28T08:13:42.974Z,10.29
2023-04-28T08:16:30.391Z,10.38
2023-04-28T08:19:16.486Z,10.59
2023-04-28T08:21:57.152Z,10.65
2023-04-28T08:24:25.900Z,10.79
2023-04-28T08:26:55.667Z,10.85
2023-04-28T08:29:26.284Z,10.82
2023-04-28T08:31:58.052Z,10.95
2023-04-28T08:34:26.711Z,11.02
2023-04-28T08:36:56.827Z,11.04
2023-04-28T08:39:27.026Z,10.87
2023-04-28T08:41:57.055Z,10.86
2023-04-28T08:44:26.183Z,10.88
2023-04-28T08:46:56.818Z,11.01
2023-04-28T08:49:34.749Z,10.89
2023-04-28T08:52:03.443Z,11.00
2023-04-28T08:54:37.850Z,10.92
2023-04-28T08:57:09.568Z,10.92
2023-04-28T08:59:41.909Z,11.07
2023-04-28T09:02:10.834Z,11.06
2023-04-28T09:04:39.564Z,11.18
2023-04-28T09:07:12.453Z,11.39
2023-04-28T09:09:41.633Z,11.54
2023-04-28T09:12:10.047Z,11.71
2023-04-28T09:14:39.245Z,11.71
2023-04-28T09:17:13.234Z,11.68
2023-04-28T09:19:43.549Z,11.64
2023-04-28T09:22:24.986Z,11.59
2023-04-28T09:24:56.395Z,11.55
2023-04-28T09:27:29.765Z,11.46
2023-04-28T09:29:59.238Z,11.55
2023-04-28T09:32:34.698Z,11.42
2023-04-28T09:35:05.254Z,11.59
2023-04-28T09:37:36.131Z,11.61
2023-04-28T09:40:10.745Z,11.45
2023-04-28T09:42:39.309Z,11.48
2023-04-28T09:45:09.552Z,11.53
2023-04-28T09:47:41.050Z,11.63
2023-04-28T09:50:14.642Z,11.64
2023-04-28T09:52:58.298Z,11.82
2023-04-28T09:55:28.600Z,11.72
2023-04-28T09:58:05.874Z,11.67
2023-04-28T10:00:34.611Z,11.57
2023-04-28T10:03:03.823Z,11.54
2023-04-28T10:05:34.320Z,11.89
2023-04-28T10:08:04.001Z,12.11
2023-04-28T10:10:33.744Z,12.07
2023-04-28T10:13:03.266Z,12.08
2023-04-28T10:15:32.763Z,11.92
2023-04-28T10:18:03.023Z,11.88
2023-04-28T10:20:31.949Z,11.90
2023-04-28T10:23:31.689Z,11.98
2023-04-28T10:26:00.044Z,11.91
2023-04-28T10:28:29.049Z,12.07
2023-04-28T10:31:14.318Z,12.08
2023-04-28T10:33:44.242Z,11.96
2023-04-28T10:36:51.096Z,12.19
2023-04-28T10:39:20.904Z,12.39
2023-04-28T10:41:49.562Z,12.51
2023-04-28T10:44:38.154Z,12.52
2023-04-28T10:47:09.732Z,12.54
2023-04-28T10:49:57.826Z,12.63
2023-04-28T10:52:38.794Z,12.55
2023-04-28T10:55:42.929Z,12.31
2023-04-28T10:58:18.340Z,12.54
2023-04-28T11:00:53.644Z,12.60
2023-04-28T11:03:44.209Z,12.56
2023-04-28T11:06:28.949Z,12.48
2023-04-28T11:09:02.645Z,12.43
2023-04-28T11:11:35.190Z,12.50
2023-04-28T11:14:18.861Z,12.43
2023-04-28T11:16:54.471Z,12.29
2023-04-28T11:19:29.062Z,12.26
2023-04-28T11:21:59.444Z,12.23
2023-04-28T11:24:29.792Z,12.22
2023-04-28T11:26:59.146Z,12.06
2023-04-28T11:29:38.548Z,12.29
2023-04-28T11:32:09.095Z,12.39
2023-04-28T11:34:38.392Z,12.49
2023-04-28T11:37:08.712Z,12.64
2023-04-28T11:39:37.590Z,12.70
2023-04-28T11:42:12.361Z,12.61
2023-04-28T11:44:40.994Z,12.68
2023-04-28T11:47:09.512Z,12.50
2023-04-28T11:49:45.169Z,12.53
2023-04-28T11:52:14.000Z,12.41
2023-04-28T11:54:45.542Z,12.36
2023-04-28T11:57:21.840Z,12.34
2023-04-28T11:59:51.057Z,12.23
2023-04-28T12:02:30.294Z,12.24
2023-04-28T12:05:07.153Z,12.31
2023-04-28T12:07:43.694Z,12.45
2023-04-28T12:10:14.047Z,12.80
2023-04-28T12:12:51.076Z,12.90
2023-04-28T12:15:22.870Z,12.99
2023-04-28T12:17:52.126Z,12.88
2023-04-28T12:20:38.100Z,12.92
2023-04-28T12:23:07.858Z,12.92
2023-04-28T12:25:46.578Z,12.58
2023-04-28T12:28:15.604Z,12.48
2023-04-28T12:30:44.351Z,12.33
2023-04-28T12:33:27.216Z,12.78
2023-04-28T12:35:57.364Z,13.36
2023-04-28T12:38:26.696Z,13.57
2023-04-28T12:40:56.648Z,13.44
2023-04-28T12:43:29.311Z,13.07
2023-04-28T12:45:57.833Z,12.90
2023-04-28T12:48:27.780Z,13.14
2023-04-28T12:50:56.271Z,13.48
2023-04-28T12:53:24.812Z,13.97
2023-04-28T12:55:54.161Z,13.85
2023-04-28T12:58:22.745Z,13.52
2023-04-28T13:00:51.096Z,13.48
2023-04-28T13:03:21.706Z,13.49
2023-04-28T13:05:51.771Z,13.01
2023-04-28T13:08:20.328Z,12.99
2023-04-28T13:10:48.680Z,13.05
2023-04-28T13:13:16.972Z,12.99
2023-04-28T13:15:46.686Z,13.42
2023-04-28T13:18:15.145Z,13.63
2023-04-28T13:20:43.710Z,13.63
2023-04-28T13:23:12.044Z,13.25
2023-04-28T13:25:40.504Z,13.13
2023-04-28T13:28:08.898Z,13.15
2023-04-28T13:30:37.364Z,13.08
2023-04-28T13:33:06.136Z,13.46
2023-04-28T13:35:34.528Z,13.57
2023-04-28T13:38:02.943Z,13.43
2023-04-28T13:40:32.449Z,13.23
2023-04-28T13:43:01.154Z,12.95
2023-04-28T13:45:29.647Z,12.72
2023-04-28T13:47:58.290Z,12.68
2023-04-28T13:50:27.122Z,12.80
2023-04-28T13:52:55.461Z,13.47
2023-04-28T13:55:28.185Z,14.04
2023-04-28T13:57:57.128Z,14.58
2023-04-28T14:00:25.502Z,14.76
2023-04-28T14:02:54.220Z,14.80
2023-04-28T14:05:22.973Z,14.50
2023-04-28T14:07:52.129Z,14.73
2023-04-28T14:10:21.040Z,14.87
2023-04-28T14:12:49.622Z,15.21
2023-04-28T14:15:18.314Z,15.70
2023-04-28T14:17:46.853Z,15.92
2023-04-28T14:20:15.548Z,16.12
2023-04-28T14:22:44.307Z,15.81
2023-04-28T14:25:12.728Z,15.80
2023-04-28T14:27:41.133Z,15.91
2023-04-28T14:30:10.204Z,16.27
2023-04-28T14:32:40.022Z,15.59
2023-04-28T14:35:09.781Z,15.34
2023-04-28T14:37:38.209Z,14.88
2023-04-28T14:40:07.355Z,14.70
2023-04-28T14:42:37.309Z,14.13
2023-04-28T14:45:07.358Z,13.87
2023-04-28T14:47:37.707Z,13.83
2023-04-28T14:50:07.197Z,13.86
2023-04-28T14:52:35.864Z,13.84
2023-04-28T14:55:05.474Z,13.57
2023-04-28T14:57:35.382Z,13.59
2023-04-28T15:00:05.704Z,13.55
2023-04-28T15:02:34.694Z,13.39
2023-04-28T15:05:03.661Z,13.26
2023-04-28T15:07:32.858Z,13.23
2023-04-28T15:10:01.307Z,13.08
2023-04-28T15:12:34.415Z,12.97
2023-04-28T15:15:02.802Z,12.91
2023-04-28T15:17:31.107Z,12.88
2023-04-28T15:19:59.449Z,12.84
2023-04-28T15:22:27.880Z,12.81
2023-04-28T15:24:56.249Z,12.76
2023-04-28T15:27:24.665Z,12.63
2023-04-28T15:29:53.177Z,12.60
2023-04-28T15:32:21.745Z,12.54
2023-04-28T15:34:50.542Z,12.56
2023-04-28T15:37:37.187Z,12.58
2023-04-28T15:40:06.288Z,12.55
2023-04-28T15:42:34.978Z,12.60
2023-04-28T15:45:04.144Z,12.61
2023-04-28T15:47:36.776Z,12.65
2023-04-28T15:50:05.934Z,12.61
2023-04-28T15:52:34.274Z,12.56
2023-04-28T15:55:02.770Z,12.58
2023-04-28T15:57:31.239Z,12.45
2023-04-28T15:59:59.977Z,12.39
2023-04-28T16:02:28.493Z,12.34
2023-04-28T16:04:57.020Z,12.35
2023-04-28T16:07:25.507Z,12.32
2023-04-28T16:09:54.597Z,12.24
2023-04-28T16:12:23.092Z,12.30
2023-04-28T16:14:51.644Z,12.39
2023-04-28T16:17:20.155Z,12.44
2023-04-28T16:19:48.589Z,12.53
2023-04-28T16:22:16.972Z,12.52
2023-04-28T16:24:46.548Z,12.53
2023-04-28T16:27:15.150Z,12.61
2023-04-28T16:29:43.611Z,12.87
2023-04-28T16:32:12.540Z,12.94
2023-04-28T16:34:41.644Z,12.95
2023-04-28T16:37:11.171Z,12.83
2023-04-28T16:39:39.797Z,12.70
2023-04-28T16:42:08.349Z,12.55
2023-04-28T16:44:36.823Z,12.32
2023-04-28T16:47:05.652Z,12.14
2023-04-28T16:49:44.340Z,11.99
2023-04-28T16:52:13.016Z,11.85
2023-04-28T16:54:41.916Z,11.73
2023-04-28T16:57:10.427Z,11.49
2023-04-28T16:59:38.778Z,11.42
2023-04-28T17:02:08.035Z,11.31
2023-04-28T17:04:37.603Z,11.23
2023-04-28T17:07:06.493Z,11.09
2023-04-28T17:09:34.939Z,10.94
2023-04-28T17:12:03.937Z,10.82
2023-04-28T17:14:32.400Z,10.69
2023-04-28T17:17:00.862Z,10.58
2023-04-28T17:19:29.218Z,10.61
2023-04-28T17:21:57.570Z,10.47
2023-04-28T17:24:26.164Z,10.51
2023-04-28T17:26:55.064Z,10.48
2023-04-28T17:29:23.513Z,10.41
2023-04-28T17:31:52.346Z,10.32
2023-04-28T17:34:20.878Z,10.28
2023-04-28T17:36:49.384Z,10.25
2023-04-28T17:39:17.873Z,10.22
2023-04-28T17:41:47.065Z,10.15
2023-04-28T17:44:15.536Z,10.13
2023-04-28T17:46:44.064Z,9.93
2023-04-28T17:49:12.610Z,10.03
2023-04-28T17:51:44.367Z,9.99
2023-04-28T17:54:12.862Z,9.97
2023-04-28T17:56:41.485Z,9.85
2023-04-28T17:59:10.002Z,9.86
2023-04-28T18:01:38.434Z,9.81
2023-04-28T18:04:07.213Z,9.74
2023-04-28T18:06:35.615Z,9.63
2023-04-28T18:09:04.337Z,9.53
2023-04-28T18:11:33.217Z,9.48
2023-04-28T18:14:01.816Z,9.42
2023-04-28T18:16:30.258Z,9.30
2023-04-28T18:18:59.618Z,9.29
2023-04-28T18:21:28.423Z,9.25
2023-04-28T18:23:56.779Z,9.26
2023-04-28T18:26:25.203Z,9.17
2023-04-28T18:28:53.590Z,9.19
2023-04-28T18:31:22.013Z,9.17
2023-04-28T18:33:50.386Z,9.12
2023-04-28T18:36:18.772Z,9.12
2023-04-28T18:38:47.247Z,9.05
2023-04-28T18:41:17.703Z,9.06
2023-04-28T18:43:46.171Z,8.99
2023-04-28T18:46:15.252Z,8.93
2023-04-28T18:48:43.980Z,8.95
2023-04-28T18:51:12.850Z,8.96
2023-04-28T18:53:41.448Z,8.94
2023-04-28T18:56:09.920Z,8.90
2023-04-28T18:58:41.591Z,8.76
2023-04-28T19:01:17.527Z,8.71
2023-04-28T19:03:46.359Z,8.68
2023-04-28T19:06:15.652Z,8.71
2023-04-28T19:08:45.023Z,8.68
2023-04-28T19:11:13.433Z,8.66
2023-04-28T19:13:42.234Z,8.54
2023-04-28T19:16:10.725Z,8.63
2023-04-28T19:18:40.033Z,8.61
2023-04-28T19:21:08.890Z,8.56
2023-04-28T19:23:39.489Z,8.57
2023-04-28T19:26:08.689Z,8.55
2023-04-28T19:28:37.267Z,8.48
2023-04-28T19:31:05.825Z,8.44
2023-04-28T19:33:34.248Z,8.38
2023-04-28T19:36:03.386Z,8.42
2023-04-28T19:38:32.008Z,8.33
2023-04-28T19:41:04.335Z,8.21
2023-04-28T19:43:32.965Z,8.27
2023-04-28T19:46:01.446Z,8.28
2023-04-28T19:48:29.886Z,8.22
2023-04-28T19:50:58.388Z,8.14
2023-04-28T19:53:27.485Z,8.21
2023-04-28T19:55:57.554Z,8.20
2023-04-28T19:58:26.093Z,8.20
2023-04-28T20:00:55.558Z,8.17
2023-04-28T20:03:24.034Z,8.16
2023-04-28T20:05:52.527Z,8.15
2023-04-28T20:08:24.303Z,8.00
2023-04-28T20:10:54.527Z,7.97
2023-04-28T20:13:22.858Z,7.92
2023-04-28T20:15:51.882Z,7.78
2023-04-28T20:18:20.273Z,7.73
2023-04-28T20:20:48.583Z,7.78
2023-04-28T20:23:16.992Z,7.70
2023-04-28T20:25:47.263Z,7.70
2023-04-28T20:28:15.765Z,7.60
2023-04-28T20:30:44.198Z,7.64
2023-04-28T20:33:13.218Z,7.63
2023-04-28T20:35:41.557Z,7.61
2023-04-28T20:38:10.102Z,7.61
2023-04-28T20:40:39.085Z,7.55
2023-04-28T20:43:07.444Z,7.55
2023-04-28T20:45:35.967Z,7.54
2023-04-28T20:48:04.724Z,7.52
2023-04-28T20:50:34.209Z,7.50
2023-04-28T20:53:02.589Z,7.46
2023-04-28T20:55:31.097Z,7.44
2023-04-28T20:57:59.598Z,7.42
2023-04-28T21:00:28.397Z,7.40
2023-04-28T21:02:57.068Z,7.36
2023-04-28T21:05:25.720Z,7.39
2023-04-28T21:07:54.308Z,7.39
2023-04-28T21:10:22.802Z,7.39
2023-04-28T21:12:51.197Z,7.40
2023-04-28T21:15:19.627Z,7.41
2023-04-28T21:17:47.996Z,7.39
2023-04-28T21:20:16.503Z,7.31
2023-04-28T21:22:45.035Z,7.30
2023-04-28T21:25:13.976Z,7.25
2023-04-28T21:27:42.756Z,7.20
2023-04-28T21:30:13.244Z,7.19
2023-04-28T21:32:42.301Z,7.08
2023-04-28T21:35:11.201Z,7.06
2023-04-28T21:37:39.696Z,7.07
2023-04-28T21:40:09.318Z,7.05
2023-04-28T21:42:37.705Z,7.01
2023-04-28T21:45:07.717Z,7.00
2023-04-28T21:47:36.171Z,7.02
2023-04-28T21:50:05.824Z,7.02
2023-04-28T21:52:34.324Z,7.02
2023-04-28T21:55:02.690Z,7.04
2023-04-28T21:57:31.109Z,7.04
2023-04-28T21:59:59.522Z,7.00
2023-04-28T22:02:29.219Z,6.98
2023-04-28T22:04:57.886Z,6.95
2023-04-28T22:07:28.535Z,6.92
2023-04-28T22:09:57.333Z,6.91
2023-04-28T22:12:25.739Z,6.90
2023-04-28T22:14:54.269Z,6.80
2023-04-28T22:17:22.763Z,6.89
2023-04-28T22:19:51.517Z,6.86
2023-04-28T22:22:20.466Z,6.82
2023-04-28T22:24:50.290Z,6.75
2023-04-28T22:27:18.699Z,6.66
2023-04-28T22:29:47.904Z,6.63
2023-04-28T22:32:16.215Z,6.59
2023-04-28T22:34:44.594Z,6.48
2023-04-28T22:37:13.501Z,6.56
2023-04-28T22:39:41.905Z,6.55
2023-04-28T22:42:10.296Z,6.52
2023-04-28T22:44:38.673Z,6.57
2023-04-28T22:47:07.842Z,6.57
2023-04-28T22:49:36.220Z,6.53
2023-04-28T22:52:04.983Z,6.53
2023-04-28T22:54:33.420Z,6.50
2023-04-28T22:57:04.071Z,6.52
2023-04-28T22:59:33.288Z,6.52
2023-04-28T23:02:02.591Z,6.53
2023-04-28T23:04:31.451Z,6.55
2023-04-28T23:07:00.023Z,6.50
2023-04-28T23:09:29.104Z,6.58
2023-04-28T23:11:57.487Z,6.58
2023-04-28T23:14:26.666Z,6.59
2023-04-28T23:16:55.085Z,6.58
2023-04-28T23:19:23.551Z,6.58
2023-04-28T23:21:52.001Z,6.51
2023-04-28T23:24:20.457Z,6.54
2023-04-28T23:26:48.769Z,6.50
2023-04-28T23:29:17.533Z,6.48
2023-04-28T23:31:55.101Z,6.45
2023-04-28T23:34:26.775Z,6.38
2023-04-28T23:36:55.253Z,6.40
2023-04-28T23:39:23.667Z,6.36
2023-04-28T23:41:52.243Z,6.35
2023-04-28T23:44:20.825Z,6.30
2023-04-28T23:46:49.577Z,6.23
2023-04-28T23:49:17.974Z,6.19
2023-04-28T23:51:46.347Z,6.11
2023-04-28T23:54:14.746Z,6.12
2023-04-28T23:56:43.022Z,6.10
2023-04-28T23:59:11.376Z,6.08
